Chuluota, Florida
Current Conditions -  °F | °C
As of 12:53 PM on Thursday 30 Oct 2014 (Local Time) from KSFB Reporting Station
Broken Clouds Broken Clouds  
Wind Chill: 82°   Ceiling: 3800
Heat Index: 83°   Visibility: 10mi
Dew Point: 64°   Wind: 6mph
Humidity: 54%   Direction: 310°NW
Pressure: 29.96"   Gusts: NA
Location:  28.647°N, 81.0852°W
Report Text: KSFB 301653Z 31005KT 10SM BKN038 28/18 A2996 RMK AO2 SLP143 T02780178
Loading
Personal Weather Stations






























Interactive Weather Map
Tropical Storm Tracking
New forecast layout! Learn more

10-Day Weather Forecast

Advertisements
Track Severe Weather on mobile